Time;durP1;ratioP1;P1;durP2;ratioP2;P2;SDS_P1;SDS_P2;PMS_P1;PMS_P2;Temp;Humidity;BMP_temperature;BMP_pressure;BME280_temperature;BME280_humidity;BME280_pressure;Samples;Min_cycle;Max_cycle;Signal;HPM_P1;HPM_P2
2021/12/01 00:00:05;;;;;;;2.57;2.37;;;5.20;85.30;;;3.63;89.59;97226.69;5011654;28;20455;-79
2021/12/01 00:02:33;;;;;;;2.80;2.67;;;5.20;85.30;;;3.75;89.48;97256.44;5022524;28;20472;-77
2021/12/01 00:05:00;;;;;;;2.37;2.27;;;5.20;85.40;;;3.78;89.52;97246.16;5004566;28;20471;-78
2021/12/01 00:07:27;;;;;;;2.67;2.47;;;5.20;85.30;;;3.76;89.48;97229.50;5018721;28;20459;-79
2021/12/01 00:09:58;;;;;;;2.20;2.10;;;5.30;84.90;;;3.77;89.32;97235.69;5008140;28;20476;-79
2021/12/01 00:12:25;;;;;;;2.20;2.10;;;5.30;85.00;;;3.84;89.56;97244.59;5020368;28;20475;-78
2021/12/01 00:14:53;;;;;;;1.80;1.70;;;5.30;85.00;;;3.78;89.36;97218.63;5025893;28;20464;-79
2021/12/01 00:17:22;;;;;;;2.10;1.90;;;5.30;85.00;;;3.89;89.84;97220.81;5025577;28;20531;-78
2021/12/01 00:19:49;;;;;;;2.40;1.80;;;5.30;85.30;;;3.86;90.43;97226.50;5003618;28;20471;-79
2021/12/01 00:22:17;;;;;;;1.77;1.67;;;5.30;86.40;;;3.85;90.70;97227.53;5016175;28;20464;-77
2021/12/01 00:24:44;;;;;;;1.73;1.63;;;5.30;86.90;;;3.80;90.92;97205.91;5014730;28;20491;-78
2021/12/01 00:27:13;;;;;;;2.03;1.93;;;5.30;87.60;;;3.77;91.39;97217.78;5000175;28;20514;-78
2021/12/01 00:29:40;;;;;;;2.83;1.90;;;5.30;88.30;;;3.59;91.61;97194.22;5013031;28;20456;-78
2021/12/01 00:32:09;;;;;;;1.60;1.50;;;5.20;88.60;;;3.66;91.80;97216.47;5003061;28;20973;-77
2021/12/01 00:34:37;;;;;;;1.80;1.70;;;5.20;87.60;;;3.56;90.49;97188.44;5021332;28;20470;-80
2021/12/01 00:37:05;;;;;;;1.83;1.73;;;5.20;86.90;;;3.62;91.25;97211.69;5021608;28;20483;-77
2021/12/01 00:39:32;;;;;;;1.73;1.63;;;5.10;88.00;;;3.54;91.16;97191.28;5021101;28;20467;-78
2021/12/01 00:42:00;;;;;;;1.90;1.60;;;5.10;87.90;;;3.56;91.66;97197.25;5006086;28;20516;-79
2021/12/01 00:44:30;;;;;;;1.30;1.20;;;5.10;89.10;;;3.54;93.43;97201.97;5028501;28;20483;-78
2021/12/01 00:47:05;;;;;;;1.60;1.50;;;5.10;90.80;;;3.30;94.90;97195.16;5005528;28;20928;-78
2021/12/01 00:49:34;;;;;;;2.17;1.97;;;4.90;91.90;;;3.31;95.95;97208.31;5010209;28;20486;-78
2021/12/01 00:52:02;;;;;;;2.30;2.10;;;4.80;92.90;;;3.23;97.13;97201.25;4991679;28;20475;-79
2021/12/01 00:54:29;;;;;;;2.20;2.10;;;4.70;94.40;;;3.25;97.32;97182.34;5011822;28;20461;-77
2021/12/01 00:56:56;;;;;;;1.87;1.77;;;4.80;95.20;;;3.21;97.56;97197.09;5011439;28;20495;-78
2021/12/01 00:59:24;;;;;;;1.93;1.83;;;4.70;95.10;;;3.11;97.74;97182.25;5009660;28;20466;-79
2021/12/01 01:01:53;;;;;;;2.27;2.07;;;4.70;96.10;;;3.07;97.93;97182.78;5002487;28;20455;-78
2021/12/01 01:04:21;;;;;;;1.90;1.80;;;4.70;95.80;;;3.13;97.90;97206.06;5007363;28;20495;-77
2021/12/01 01:06:48;;;;;;;1.90;1.80;;;4.60;96.00;;;3.09;97.91;97196.78;5003645;28;20820;-78
2021/12/01 01:09:16;;;;;;;2.03;1.93;;;4.60;95.10;;;3.18;97.60;97203.63;5000668;28;20474;-77
2021/12/01 01:17:36;;;;;;;1.47;1.37;;;4.60;94.80;;;3.18;97.36;97197.50;5001012;28;20447;-77
2021/12/01 01:20:06;;;;;;;1.93;1.77;;;4.60;94.20;;;3.13;97.28;97190.03;5018076;28;20452;-78
2021/12/01 01:22:35;;;;;;;1.80;1.70;;;4.60;94.70;;;3.17;96.97;97191.31;5002373;28;20459;-77
2021/12/01 01:25:04;;;;;;;1.90;1.40;;;4.60;94.80;;;3.03;97.41;97187.66;5015830;28;20486;-78
2021/12/01 01:27:32;;;;;;;1.73;1.63;;;4.60;94.30;;;2.90;96.96;97163.50;5013667;28;20455;-78
2021/12/01 01:29:59;;;;;;;1.40;1.30;;;4.60;94.10;;;3.00;97.90;97185.38;4998874;28;20463;-78
2021/12/01 01:32:29;;;;;;;1.67;1.57;;;4.50;95.20;;;2.96;97.36;97174.25;5001577;28;20848;-77
2021/12/01 01:34:56;;;;;;;1.63;1.50;;;4.50;94.70;;;3.16;97.16;97180.84;5016307;28;20455;-77
2021/12/01 01:37:23;;;;;;;1.70;1.60;;;4.60;94.60;;;3.06;97.02;97178.47;4996401;28;20510;-77
2021/12/01 01:39:51;;;;;;;1.73;1.63;;;4.50;94.50;;;3.02;96.29;97162.00;5015851;28;20452;-77
2021/12/01 01:42:19;;;;;;;1.70;1.60;;;4.60;94.00;;;3.05;97.20;97174.97;5019374;28;20459;-77
2021/12/01 01:44:47;;;;;;;1.60;1.50;;;4.50;94.50;;;3.08;96.32;97182.59;5014738;28;20472;-77
2021/12/01 01:47:15;;;;;;;1.50;1.40;;;4.60;93.80;;;3.07;95.99;97183.59;5000597;28;20506;-76
2021/12/01 01:49:47;;;;;;;1.90;1.80;;;4.50;93.40;;;3.02;95.65;97151.31;5024332;28;20489;-77
2021/12/01 01:52:14;;;;;;;1.97;1.77;;;4.60;93.10;;;3.17;95.70;97174.47;5015969;28;20910;-78
2021/12/01 01:54:41;;;;;;;1.60;1.50;;;4.60;92.60;;;3.07;96.28;97164.91;5006194;28;20483;-79
2021/12/01 01:57:09;;;;;;;1.67;1.57;;;4.60;93.10;;;3.17;96.33;97164.63;5016231;28;20463;-79
2021/12/01 01:59:36;;;;;;;1.53;1.43;;;4.60;93.20;;;3.10;95.71;97163.72;5007721;28;20465;-79
2021/12/01 02:02:04;;;;;;;1.73;1.63;;;4.60;92.60;;;3.03;96.09;97169.00;5030918;28;20464;-82
2021/12/01 02:04:33;;;;;;;1.90;1.80;;;4.50;92.70;;;3.00;96.26;97142.69;5031965;28;20510;-80
2021/12/01 02:07:08;;;;;;;1.77;1.67;;;4.60;93.50;;;3.19;95.32;97156.44;5028172;28;20503;-79
2021/12/01 02:09:36;;;;;;;2.00;1.90;;;4.60;92.50;;;3.07;95.51;97132.91;5024699;28;20547;-79
2021/12/01 02:12:05;;;;;;;2.20;2.07;;;4.60;92.70;;;3.16;95.32;97140.78;5016971;28;20605;-79
2021/12/01 02:14:33;;;;;;;2.20;2.10;;;4.60;92.50;;;3.11;95.93;97138.69;5012389;28;20468;-78
2021/12/01 02:17:00;;;;;;;2.00;1.90;;;4.60;93.30;;;3.18;95.23;97130.75;5007083;28;20514;-78
2021/12/01 02:19:28;;;;;;;2.30;2.10;;;4.60;92.70;;;3.20;96.09;97128.72;5022130;28;20460;-78
2021/12/01 02:21:57;;;;;;;2.47;2.27;;;4.70;92.70;;;3.09;95.71;97114.84;5026341;28;20463;-77
2021/12/01 02:24:25;;;;;;;2.83;2.63;;;4.70;92.80;;;3.15;95.30;97123.13;5018077;28;20460;-77
2021/12/01 02:26:53;;;;;;;3.50;3.20;;;4.70;92.60;;;3.22;96.04;97129.34;5024648;28;20455;-78
2021/12/01 02:29:23;;;;;;;2.77;2.50;;;4.70;93.50;;;3.24;95.39;97116.63;5009061;28;20460;-78
2021/12/01 02:31:52;;;;;;;3.30;2.87;;;4.70;92.50;;;3.27;94.71;97118.94;5026988;28;20459;-78
2021/12/01 02:34:22;;;;;;;2.77;2.57;;;4.70;92.00;;;3.26;94.41;97109.25;5014659;28;20443;-77
2021/12/01 02:36:57;;;;;;;2.70;2.50;;;4.80;91.90;;;3.32;94.12;97113.84;5006737;28;20491;-78
2021/12/01 02:39:26;;;;;;;3.10;2.83;;;4.80;91.70;;;3.40;93.72;97120.91;5017961;28;20642;-79
2021/12/01 02:41:56;;;;;;;3.10;2.90;;;4.90;91.40;;;3.33;95.30;97118.16;5020008;28;20464;-78
2021/12/01 02:44:25;;;;;;;3.43;3.20;;;4.80;92.10;;;3.07;95.40;97079.50;5002862;28;20445;-78
2021/12/01 02:46:53;;;;;;;3.37;2.90;;;4.70;92.20;;;2.88;94.45;97037.44;5010752;28;20957;-78
2021/12/01 02:49:21;;;;;;;3.00;2.80;;;4.80;92.20;;;3.37;94.65;97100.72;4992246;28;20998;-78
2021/12/01 02:51:51;;;;;;;2.80;2.60;;;4.80;92.10;;;3.33;94.59;97103.97;5010089;28;20531;-77
2021/12/01 02:54:20;;;;;;;3.53;3.23;;;4.80;91.70;;;3.33;94.60;97085.28;5002517;28;20459;-80
2021/12/01 02:56:49;;;;;;;3.63;3.33;;;4.80;91.60;;;3.29;94.43;97092.88;5000791;28;20452;-78
2021/12/01 02:59:17;;;;;;;3.50;3.20;;;4.80;91.80;;;3.26;94.81;97088.72;5000205;28;20447;-79
2021/12/01 03:01:45;;;;;;;3.20;3.00;;;4.80;91.70;;;3.45;94.82;97096.28;5000381;28;20548;-79
2021/12/01 03:04:24;;;;;;;3.00;2.70;;;4.80;91.70;;;3.29;94.16;97071.50;5020527;28;20474;-78
2021/12/01 03:06:55;;;;;;;2.50;2.30;;;4.90;91.50;;;3.52;93.62;97081.13;5012303;28;20444;-77
2021/12/01 03:09:26;;;;;;;3.03;2.83;;;4.90;91.10;;;3.27;94.09;97052.19;5015212;28;20506;-79
2021/12/01 03:11:53;;;;;;;2.27;2.17;;;4.90;91.30;;;3.49;93.54;97068.16;4992242;28;20522;-78
2021/12/01 03:14:23;;;;;;;2.73;2.47;;;4.90;91.20;;;3.49;93.12;97057.50;4998503;28;20452;-79
2021/12/01 03:16:55;;;;;;;2.47;2.30;;;4.90;90.60;;;3.41;93.25;97037.09;5008564;28;20471;-78
2021/12/01 03:19:25;;;;;;;3.13;2.57;;;5.00;90.80;;;3.45;93.29;97048.22;5020307;28;20448;-78
2021/12/01 03:21:53;;;;;;;2.43;2.33;;;4.90;90.30;;;3.55;92.67;97048.69;5013052;28;20465;-78
2021/12/01 03:24:21;;;;;;;2.70;2.47;;;5.00;90.50;;;3.47;92.76;97052.34;5010027;28;20950;-78
2021/12/01 03:26:49;;;;;;;3.00;2.80;;;5.00;90.50;;;3.49;92.72;97049.47;4992701;28;21169;-78
2021/12/01 03:29:17;;;;;;;2.40;2.30;;;5.00;90.50;;;3.56;93.31;97050.34;4992606;28;20475;-78
2021/12/01 03:31:45;;;;;;;2.60;2.40;;;5.00;90.70;;;3.68;91.98;97047.97;4991093;28;20448;-79
2021/12/01 03:34:13;;;;;;;2.83;2.63;;;5.00;90.00;;;3.49;92.74;97038.78;5012222;28;20452;-78
2021/12/01 03:36:41;;;;;;;3.33;3.03;;;5.00;90.20;;;3.50;93.23;97040.44;4977618;28;20462;-80
2021/12/01 03:39:09;;;;;;;2.90;2.70;;;5.00;90.10;;;3.43;93.05;97023.56;5012746;28;20943;-78
2021/12/01 03:41:37;;;;;;;2.77;2.57;;;5.00;90.40;;;3.54;93.01;97031.00;5013617;28;20459;-78
2021/12/01 03:44:06;;;;;;;2.30;2.20;;;4.90;90.70;;;3.36;92.41;96989.59;4997260;28;20463;-77
2021/12/01 03:46:34;;;;;;;3.40;2.57;;;5.00;90.30;;;3.45;93.17;97016.97;4993481;28;20476;-77
2021/12/01 03:49:01;;;;;;;2.77;2.57;;;5.00;90.10;;;3.49;92.73;97014.75;5012397;28;21001;-77
2021/12/01 03:51:29;;;;;;;2.63;2.43;;;5.00;90.50;;;3.44;92.87;96998.50;5012484;28;20825;-77
2021/12/01 03:53:57;;;;;;;2.70;2.50;;;5.00;90.60;;;3.56;93.30;97004.13;5009562;28;20516;-77
2021/12/01 03:56:27;;;;;;;2.67;2.40;;;5.00;90.40;;;3.53;92.17;97010.66;4991321;28;20881;-79
2021/12/01 03:58:57;;;;;;;2.47;2.30;;;5.00;90.10;;;3.40;93.69;97006.88;5014975;28;20454;-79
2021/12/01 04:01:26;;;;;;;2.87;2.67;;;4.90;90.70;;;3.47;92.58;96990.09;4993459;28;20979;-80
2021/12/01 04:03:53;;;;;;;2.20;2.10;;;5.00;90.10;;;3.52;93.38;97001.00;5001580;28;20456;-79
2021/12/01 04:06:21;;;;;;;2.77;2.57;;;5.00;90.50;;;3.54;92.17;96977.59;5025564;28;20872;-77
2021/12/01 04:08:49;;;;;;;1.90;1.80;;;5.00;89.50;;;3.46;92.53;96985.78;4994351;28;20456;-78
2021/12/01 04:11:18;;;;;;;2.00;1.77;;;5.00;89.90;;;3.47;93.00;96987.44;4984043;28;20550;-78
2021/12/01 04:13:46;;;;;;;2.50;2.30;;;4.90;90.20;;;3.57;93.09;96977.22;5019075;28;20594;-78
2021/12/01 04:16:15;;;;;;;2.53;1.80;;;5.00;90.20;;;3.54;92.00;96972.25;5005982;28;20444;-78
2021/12/01 04:18:44;;;;;;;2.17;2.07;;;5.00;89.50;;;3.44;93.35;96977.13;5015839;28;20470;-78
2021/12/01 04:21:16;;;;;;;1.50;1.40;;;5.00;90.30;;;3.56;92.59;96970.22;5022557;28;20460;-78
2021/12/01 04:23:46;;;;;;;1.87;1.77;;;5.00;89.80;;;3.54;92.34;96967.75;5018923;28;20467;-78
2021/12/01 04:26:21;;;;;;;2.03;1.93;;;5.00;89.90;;;3.61;92.32;96962.44;5010360;28;20464;-78
2021/12/01 04:28:49;;;;;;;2.90;2.20;;;5.00;90.20;;;3.53;92.36;96950.06;5022085;28;20842;-78
2021/12/01 04:31:16;;;;;;;1.83;1.60;;;5.00;89.70;;;3.47;92.31;96937.50;5012074;28;20450;-79
2021/12/01 04:33:45;;;;;;;2.00;1.90;;;5.00;89.80;;;3.53;92.13;96962.59;5029373;28;20456;-78
2021/12/01 04:36:14;;;;;;;1.60;1.50;;;5.00;89.60;;;3.40;92.44;96937.44;5028790;28;20447;-78
2021/12/01 04:38:41;;;;;;;2.10;1.90;;;5.00;89.40;;;3.61;91.61;96959.78;5012837;28;20446;-78
2021/12/01 04:41:13;;;;;;;2.63;1.67;;;5.10;88.40;;;3.53;92.83;96965.25;5007934;28;20940;-78
2021/12/01 04:43:41;;;;;;;1.83;1.73;;;5.00;90.20;;;3.45;91.52;96909.34;5012571;28;20431;-79
2021/12/01 04:46:10;;;;;;;1.70;1.60;;;5.10;88.10;;;3.69;91.41;96956.13;5007995;28;20474;-78
2021/12/01 04:48:38;;;;;;;2.70;1.80;;;5.10;88.20;;;3.44;91.48;96908.50;5023681;28;20548;-78
2021/12/01 04:51:06;;;;;;;2.50;1.93;;;5.10;88.20;;;3.34;91.57;96914.22;5013670;28;20463;-79
2021/12/01 04:53:34;;;;;;;1.60;1.50;;;5.10;87.90;;;3.60;91.72;96936.75;4982698;28;20455;-79
2021/12/01 04:56:02;;;;;;;1.70;1.60;;;5.10;88.10;;;3.80;90.69;96941.38;4983746;28;20443;-80
2021/12/01 04:58:31;;;;;;;2.00;1.90;;;5.20;87.80;;;3.61;91.32;96925.06;5023358;28;20813;-79
2021/12/01 05:00:59;;;;;;;1.83;1.50;;;5.20;87.60;;;3.49;91.74;96924.78;5015260;28;20467;-77
2021/12/01 05:03:26;;;;;;;1.50;1.40;;;5.10;88.60;;;3.68;91.83;96923.22;5016283;28;20468;-77
2021/12/01 05:05:54;;;;;;;1.93;1.47;;;5.10;88.60;;;3.47;91.51;96891.28;4999753;28;20978;-77
2021/12/01 05:08:25;;;;;;;1.70;1.60;;;5.10;88.40;;;3.71;91.06;96913.16;5013883;28;20452;-77
2021/12/01 05:10:52;;;;;;;1.67;1.57;;;5.20;88.30;;;3.68;91.58;96911.72;5002950;28;20513;-78
2021/12/01 05:13:21;;;;;;;1.77;1.67;;;5.20;88.30;;;3.83;90.96;96912.41;5014612;28;20819;-78
2021/12/01 05:15:48;;;;;;;1.60;1.50;;;5.20;87.40;;;3.80;91.17;96901.28;4997815;28;20475;-77
2021/12/01 05:18:16;;;;;;;1.60;1.50;;;5.30;87.60;;;3.85;90.80;96904.19;4998619;28;20444;-78
2021/12/01 05:20:43;;;;;;;2.20;2.00;;;5.30;86.90;;;3.71;91.15;96870.41;5002680;28;20486;-79
2021/12/01 05:23:12;;;;;;;2.57;1.70;;;5.30;87.40;;;3.64;91.59;96881.91;5023776;28;20462;-78
2021/12/01 05:25:44;;;;;;;2.30;2.10;;;5.20;88.10;;;3.71;90.90;96891.78;4996825;28;20526;-80
2021/12/01 05:28:12;;;;;;;2.47;2.07;;;5.30;88.20;;;3.72;91.39;96882.78;5000609;28;20456;-78
2021/12/01 05:30:41;;;;;;;4.00;2.07;;;5.30;87.60;;;3.74;91.28;96897.56;5018463;28;20651;-78
2021/12/01 05:33:10;;;;;;;2.43;2.23;;;5.20;88.40;;;3.85;91.41;96896.16;5015217;28;20480;-78
2021/12/01 05:35:38;;;;;;;1.70;1.60;;;5.30;88.60;;;3.79;91.29;96881.78;4996128;28;20969;-77
2021/12/01 05:38:06;;;;;;;2.23;2.10;;;5.30;88.30;;;3.72;92.35;96874.75;5009561;28;20811;-76
2021/12/01 05:40:34;;;;;;;4.43;2.30;;;5.20;89.00;;;3.73;91.81;96879.88;5000756;28;20444;-72
2021/12/01 05:43:03;;;;;;;2.33;2.10;;;5.30;88.60;;;3.84;91.92;96881.16;4993822;28;20475;-72
2021/12/01 05:45:33;;;;;;;2.40;2.20;;;5.30;89.00;;;3.75;92.07;96874.34;5015763;28;20448;-84
2021/12/01 05:48:01;;;;;;;2.30;2.20;;;5.30;88.70;;;3.71;92.42;96873.91;5003663;28;21069;-69
2021/12/01 05:50:28;;;;;;;2.97;2.60;;;5.20;88.70;;;4.09;90.46;96872.59;5008212;28;20473;-71
2021/12/01 05:52:55;;;;;;;6.97;2.67;;;5.40;88.50;;;4.28;90.98;96865.66;5005033;28;20466;-72
2021/12/01 05:55:23;;;;;;;2.23;2.13;;;5.60;89.90;;;4.14;89.66;96842.59;5009101;28;20461;-73
2021/12/01 05:57:50;;;;;;;2.00;1.80;;;5.70;85.80;;;3.87;91.37;96848.72;5003457;28;20455;-70
2021/12/01 06:00:19;;;;;;;3.77;2.00;;;5.40;86.30;;;3.96;91.00;96839.47;4990392;28;20467;-69
2021/12/01 06:02:50;;;;;;;2.37;2.17;;;5.40;86.90;;;4.23;91.04;96836.84;5009024;28;20447;-70
2021/12/01 06:05:17;;;;;;;2.30;2.10;;;5.60;88.00;;;4.31;88.40;96826.97;5010387;28;20499;-70
2021/12/01 06:07:44;;;;;;;2.50;2.30;;;5.70;84.40;;;3.99;89.54;96805.34;5007590;28;20475;-70
2021/12/01 06:10:12;;;;;;;2.50;1.50;;;5.60;85.00;;;3.85;90.21;96799.16;4991936;28;20463;-69
2021/12/01 06:12:40;;;;;;;2.40;2.20;;;5.40;85.70;;;3.82;90.40;96798.53;4996182;28;20452;-75
2021/12/01 06:15:09;;;;;;;3.37;2.20;;;5.40;86.00;;;3.86;89.68;96793.59;4978747;28;20452;-75
2021/12/01 06:17:38;;;;;;;2.70;2.20;;;5.30;85.70;;;4.19;89.10;96798.19;4993669;28;20459;-69
2021/12/01 06:20:07;;;;;;;2.10;2.00;;;5.50;85.80;;;3.93;89.67;96794.44;4981203;28;20478;-69
2021/12/01 06:22:35;;;;;;;2.27;1.83;;;5.50;84.70;;;4.19;88.93;96798.19;5004586;28;20933;-69
2021/12/01 06:25:03;;;;;;;2.07;1.87;;;5.50;85.60;;;4.20;88.72;96793.63;4985638;28;20463;-69
2021/12/01 06:27:30;;;;;;;2.10;1.80;;;5.60;83.90;;;4.23;88.03;96786.03;5007298;28;20472;-69
2021/12/01 06:29:57;;;;;;;2.50;2.30;;;5.70;84.00;;;4.21;88.61;96785.44;4986830;28;20471;-68
2021/12/01 06:32:24;;;;;;;2.43;2.07;;;5.60;83.90;;;4.30;88.51;96795.91;5004509;28;20514;-68
2021/12/01 06:34:53;;;;;;;3.60;3.03;;;5.60;83.80;;;4.44;88.01;96778.81;5005663;28;20889;-69
2021/12/01 06:37:20;;;;;;;2.97;2.20;;;5.70;83.70;;;4.22;87.91;96776.38;5006225;28;20962;-68
2021/12/01 06:39:47;;;;;;;1.80;1.70;;;5.70;82.70;;;4.30;87.03;96785.22;5007397;28;20986;-68
2021/12/01 06:42:15;;;;;;;2.97;2.10;;;5.70;82.30;;;4.29;86.78;96781.72;5007767;28;21246;-69
2021/12/01 06:44:42;;;;;;;1.87;1.77;;;5.70;82.20;;;4.22;87.25;96784.41;5015132;28;20534;-69
2021/12/01 06:47:09;;;;;;;2.13;1.93;;;5.70;82.00;;;4.09;87.86;96782.56;5007758;28;20487;-68
2021/12/01 06:49:36;;;;;;;1.83;1.73;;;5.60;82.20;;;4.28;86.61;96790.78;5003264;28;20488;-68
2021/12/01 06:52:06;;;;;;;1.63;1.53;;;5.60;82.30;;;4.18;87.57;96780.50;5008432;28;20459;-69
2021/12/01 06:54:33;;;;;;;2.33;2.03;;;5.60;82.30;;;4.30;87.15;96795.91;5009146;28;20447;-68
2021/12/01 06:57:00;;;;;;;1.97;1.87;;;5.70;82.10;;;4.33;86.34;96792.84;5006241;28;20541;-68
2021/12/01 06:59:28;;;;;;;2.00;1.90;;;5.70;81.70;;;4.25;86.41;96783.97;4990842;28;20448;-69
2021/12/01 07:01:55;;;;;;;2.10;2.00;;;5.70;81.60;;;4.31;86.37;96781.50;5002809;28;20461;-68
2021/12/01 07:04:22;;;;;;;2.00;1.63;;;5.70;81.40;;;4.45;84.85;96774.31;5004363;28;20487;-69
2021/12/01 07:06:49;;;;;;;3.50;1.70;;;5.80;80.80;;;4.44;85.52;96773.47;5008579;28;20533;-69
2021/12/01 07:09:21;;;;;;;2.60;2.40;;;5.90;80.80;;;4.43;85.05;96754.97;4993726;28;20790;-74
2021/12/01 07:11:48;;;;;;;1.90;1.70;;;5.90;81.00;;;4.53;85.25;96768.75;4986858;28;20460;-69
2021/12/01 07:14:15;;;;;;;1.63;1.50;;;5.90;80.60;;;4.54;84.65;96767.69;4988553;28;20523;-69
2021/12/01 07:16:43;;;;;;;2.40;2.20;;;5.90;80.00;;;4.56;84.75;96765.66;5000785;28;20867;-70
2021/12/01 07:19:10;;;;;;;1.50;1.40;;;6.00;80.40;;;4.51;85.03;96760.94;5003134;28;20470;-71
2021/12/01 07:21:37;;;;;;;1.77;1.67;;;5.90;80.20;;;4.63;84.70;96765.66;4991149;28;20463;-72
2021/12/01 07:24:06;;;;;;;2.00;1.73;;;6.00;80.20;;;4.45;84.42;96764.41;5006051;28;20471;-70
2021/12/01 07:26:35;;;;;;;2.03;1.87;;;6.00;80.00;;;4.57;85.23;96755.78;5006758;28;20488;-71
2021/12/01 07:29:02;;;;;;;2.10;2.00;;;5.90;80.40;;;4.59;85.21;96748.34;5006031;28;20452;-70
2021/12/01 07:31:29;;;;;;;2.30;1.70;;;6.00;80.40;;;4.61;84.74;96747.13;5006854;28;20493;-71
2021/12/01 07:33:56;;;;;;;1.83;1.73;;;6.00;80.10;;;4.51;84.76;96736.88;4987574;28;20445;-70
2021/12/01 07:36:23;;;;;;;2.10;1.90;;;5.90;80.30;;;4.53;85.05;96742.81;5003169;28;20822;-73
2021/12/01 07:38:53;;;;;;;1.47;1.37;;;5.90;80.60;;;4.63;83.96;96725.53;5009731;28;20464;-75
2021/12/01 07:41:20;;;;;;;1.57;1.47;;;6.00;79.90;;;4.72;83.35;96726.94;4988591;28;21066;-76
2021/12/01 07:43:49;;;;;;;1.60;1.50;;;6.10;79.70;;;4.72;83.22;96724.25;5004962;28;20522;-75
2021/12/01 07:46:16;;;;;;;1.70;1.60;;;6.10;79.60;;;4.65;84.84;96715.44;4961924;28;20560;-75
2021/12/01 07:48:43;;;;;;;3.90;1.27;;;6.10;79.80;;;4.77;83.68;96703.03;4990130;28;20506;-74
2021/12/01 07:51:12;;;;;;;2.23;1.57;;;6.10;79.60;;;4.73;83.36;96707.16;4987462;28;20452;-75
2021/12/01 07:53:39;;;;;;;2.00;1.87;;;6.10;79.40;;;4.52;84.59;96695.72;5007151;28;20466;-75
2021/12/01 07:56:07;;;;;;;1.77;1.60;;;6.00;79.50;;;4.48;85.21;96694.50;5007547;28;20456;-75
2021/12/01 07:58:34;;;;;;;1.43;1.33;;;5.90;79.70;;;4.38;85.58;96681.53;5006321;28;20470;-69
2021/12/01 08:01:03;;;;;;;1.40;1.30;;;5.90;80.10;;;4.56;84.67;96684.59;5001048;28;20472;-70
2021/12/01 08:03:30;;;;;;;2.87;1.30;;;6.00;79.70;;;4.57;84.79;96662.16;5006542;28;20525;-72
2021/12/01 08:05:58;;;;;;;1.50;1.40;;;6.00;79.90;;;4.82;83.70;96673.81;5008747;28;20501;-70
2021/12/01 08:08:25;;;;;;;2.13;1.20;;;6.10;79.40;;;4.78;82.42;96661.06;5006194;28;21341;-71
2021/12/01 08:10:54;;;;;;;1.40;1.23;;;6.20;78.70;;;4.73;83.71;96667.03;4991928;28;20459;-71
2021/12/01 08:13:21;;;;;;;1.60;1.50;;;6.10;79.30;;;4.80;84.06;96670.53;5003207;28;20466;-71
2021/12/01 08:15:48;;;;;;;2.33;1.43;;;6.20;79.50;;;4.94;83.23;96663.25;4987029;28;20479;-72
2021/12/01 08:18:19;;;;;;;1.50;1.30;;;6.20;78.80;;;4.74;82.36;96649.94;4990510;28;20451;-72
2021/12/01 08:20:47;;;;;;;2.70;1.00;;;6.30;78.30;;;4.73;82.76;96642.94;5003493;28;20977;-70
2021/12/01 08:23:14;;;;;;;1.57;1.10;;;6.20;78.50;;;4.86;82.87;96647.44;5008879;28;20560;-72
2021/12/01 08:25:42;;;;;;;2.23;1.30;;;6.30;78.30;;;4.81;82.90;96631.19;5005037;28;20906;-72
2021/12/01 08:28:09;;;;;;;2.13;1.90;;;6.30;78.50;;;5.05;82.02;96634.97;4989005;28;21246;-71
2021/12/01 08:30:36;;;;;;;1.70;1.50;;;6.30;78.60;;;5.29;81.10;96635.28;5009589;28;20998;-72
2021/12/01 08:33:04;;;;;;;1.30;1.13;;;6.50;78.20;;;5.18;80.90;96627.91;5009019;28;20495;-71
2021/12/01 08:35:33;;;;;;;2.20;1.00;;;6.50;77.20;;;5.05;81.98;96618.13;4995091;28;20460;-70
2021/12/01 08:38:00;;;;;;;1.03;0.93;;;6.50;77.50;;;5.38;80.13;96620.59;4992335;28;21093;-71
2021/12/01 08:40:28;;;;;;;1.20;1.10;;;6.60;77.00;;;5.41;80.32;96618.50;5006531;28;20455;-72
2021/12/01 08:42:55;;;;;;;1.10;1.10;;;6.70;76.60;;;5.42;79.92;96601.41;5012824;28;20470;-72
2021/12/01 08:45:22;;;;;;;2.10;0.80;;;6.70;76.20;;;5.35;79.42;96610.28;5010203;28;20929;-71
2021/12/01 08:47:50;;;;;;;1.77;1.00;;;6.80;75.60;;;5.39;79.23;96600.81;5004927;28;20884;-71
2021/12/01 08:50:18;;;;;;;2.93;0.70;;;6.80;75.40;;;5.56;78.68;96602.13;4992225;28;20828;-71
2021/12/01 08:52:48;;;;;;;1.10;0.97;;;6.80;75.40;;;5.71;77.47;96591.88;5008587;28;20969;-72
2021/12/01 08:55:15;;;;;;;1.93;1.20;;;7.00;74.50;;;5.73;78.08;96589.81;5006969;28;20470;-73
2021/12/01 08:57:42;;;;;;;2.20;1.03;;;7.10;74.50;;;5.80;77.61;96577.19;5003174;28;20459;-70
2021/12/01 09:00:11;;;;;;;1.27;1.10;;;7.10;74.10;;;5.73;77.79;96570.25;5004886;28;20460;-72
2021/12/01 09:02:39;;;;;;;1.27;1.03;;;7.10;73.80;;;5.85;76.49;96562.28;5008346;28;20597;-71
2021/12/01 09:05:07;;;;;;;1.20;0.90;;;7.20;73.30;;;5.96;76.49;96543.59;5009064;28;20466;-75
2021/12/01 09:07:34;;;;;;;1.20;0.80;;;7.30;73.10;;;5.81;77.14;96541.28;4996980;28;20471;-71
2021/12/01 09:10:04;;;;;;;1.37;0.83;;;7.20;73.10;;;6.17;75.45;96538.06;5014823;28;20463;-73
2021/12/01 09:12:32;;;;;;;1.53;1.30;;;7.40;72.40;;;6.09;75.73;96547.22;4994794;28;20483;-72
2021/12/01 09:14:59;;;;;;;1.00;0.90;;;7.50;72.20;;;6.04;75.84;96531.00;5010946;28;20497;-73
2021/12/01 09:17:27;;;;;;;2.20;0.90;;;7.40;71.80;;;5.95;76.02;96525.88;4997561;28;20468;-75
2021/12/01 09:19:54;;;;;;;1.07;0.63;;;7.40;71.80;;;6.07;75.62;96517.13;5014446;28;20556;-75
2021/12/01 09:22:22;;;;;;;0.90;0.73;;;7.50;71.70;;;6.13;74.56;96497.47;4993692;28;20467;-71
2021/12/01 09:24:49;;;;;;;1.20;0.60;;;7.60;70.90;;;6.20;74.70;96508.94;4993989;28;20455;-75
2021/12/01 09:27:18;;;;;;;0.93;0.80;;;7.60;70.90;;;6.33;74.58;96513.31;5007941;28;23897;-73
2021/12/01 09:29:45;;;;;;;1.00;0.90;;;7.70;70.60;;;6.29;74.92;96509.47;5010570;28;20467;-69
2021/12/01 09:32:13;;;;;;;1.00;0.80;;;7.60;70.80;;;6.38;74.57;96507.28;5008976;28;20510;-72
2021/12/01 09:34:41;;;;;;;1.83;0.90;;;7.80;70.60;;;6.39;74.63;96495.50;4989124;28;20463;-71
2021/12/01 09:37:09;;;;;;;1.30;1.13;;;7.80;70.60;;;6.42;75.07;96492.38;5006334;28;20654;-71
2021/12/01 09:39:37;;;;;;;6.43;1.37;;;7.80;70.80;;;6.28;75.20;96485.53;4991948;28;20460;-70
2021/12/01 09:42:05;;;;;;;1.90;1.00;;;7.70;70.40;;;6.35;74.70;96472.88;4987080;28;20463;-71
2021/12/01 09:44:34;;;;;;;1.70;1.23;;;7.80;70.40;;;6.54;73.79;96480.88;5004685;28;20471;-71
2021/12/01 09:47:01;;;;;;;1.53;1.20;;;7.80;69.90;;;6.59;73.77;96479.16;5000114;28;20476;-70
2021/12/01 09:49:29;;;;;;;1.00;0.90;;;7.90;70.00;;;6.42;74.70;96436.03;5007063;28;20488;-71
2021/12/01 09:51:56;;;;;;;2.13;1.57;;;7.90;70.20;;;6.60;74.14;96458.50;4999545;28;20520;-72
2021/12/01 09:54:24;;;;;;;1.17;0.83;;;8.00;70.20;;;6.65;73.59;96450.59;5003837;28;21072;-71
2021/12/01 09:56:51;;;;;;;1.10;1.00;;;8.00;69.80;;;6.70;73.88;96444.53;5002863;28;20475;-72
2021/12/01 09:59:18;;;;;;;2.03;1.20;;;8.00;69.90;;;6.65;73.99;96442.53;4988981;28;20517;-70
2021/12/01 10:01:47;;;;;;;2.07;1.20;;;8.00;69.80;;;6.78;73.59;96436.97;4989282;28;20460;-74
2021/12/01 10:04:16;;;;;;;1.40;1.30;;;8.10;69.70;;;6.79;73.61;96435.91;5008516;28;20990;-79
2021/12/01 10:06:44;;;;;;;2.17;1.43;;;8.20;69.50;;;6.78;73.93;96434.28;5005844;28;20452;-75
2021/12/01 10:09:14;;;;;;;1.23;1.13;;;8.10;69.60;;;6.64;74.27;96408.69;4991457;28;21017;-77
2021/12/01 10:11:44;;;;;;;1.93;1.27;;;8.20;69.80;;;6.64;74.33;96416.75;4970779;28;20455;-76
2021/12/01 10:14:19;;;;;;;2.10;1.10;;;8.20;69.50;;;6.71;74.64;96427.38;5004982;28;20463;-75
2021/12/01 10:16:54;;;;;;;3.77;1.90;;;8.10;69.70;;;6.91;74.23;96419.03;4988648;28;20517;-75
2021/12/01 10:19:21;;;;;;;1.37;1.27;;;8.20;70.00;;;6.68;74.25;96409.88;5001170;28;20974;-75
2021/12/01 10:21:51;;;;;;;1.20;1.10;;;8.20;69.60;;;6.86;74.18;96411.66;4994397;28;20479;-74
2021/12/01 10:24:23;;;;;;;0.97;0.80;;;8.20;69.80;;;6.79;73.93;96401.03;5011713;28;20838;-75
2021/12/01 10:26:53;;;;;;;1.50;1.40;;;8.20;69.40;;;7.13;73.30;96403.19;4992225;28;20467;-76
2021/12/01 10:29:25;;;;;;;1.27;1.17;;;8.30;69.60;;;7.26;72.20;96393.22;5006792;28;20467;-75
2021/12/01 10:31:58;;;;;;;0.90;0.90;;;8.60;68.80;;;7.12;72.57;96387.28;4993005;28;20484;-73
2021/12/01 10:34:29;;;;;;;2.90;1.00;;;8.50;68.40;;;7.25;72.25;96380.84;5008152;28;20488;-74
2021/12/01 10:37:18;;;;;;;1.10;0.70;;;8.50;68.40;;;7.22;72.42;96366.03;5013927;28;20554;-76
2021/12/01 10:39:49;;;;;;;1.70;0.90;;;8.50;68.50;;;7.32;71.82;96362.75;4993308;28;20456;-76
2021/12/01 10:42:18;;;;;;;3.23;1.10;;;8.60;68.20;;;7.50;71.33;96362.59;5024360;28;20598;-74